sensor_id;sensor_type;location;lat;lon;timestamp;pressure;altitude;pressure_sealevel;temperature;humidity
5703;BME280;2876;51.738;10.050;2022-12-29T00:05:55;98177.28;;;10.01;84.46
5703;BME280;2876;51.738;10.050;2022-12-29T00:11:58;98182.41;;;9.84;85.61
5703;BME280;2876;51.738;10.050;2022-12-29T00:18:00;98183.44;;;10.02;85.13
5703;BME280;2876;51.738;10.050;2022-12-29T00:24:03;98176.72;;;10.11;85.32
5703;BME280;2876;51.738;10.050;2022-12-29T00:30:24;98184.94;;;9.98;85.44
5703;BME280;2876;51.738;10.050;2022-12-29T00:36:45;98183.44;;;10.02;85.89
5703;BME280;2876;51.738;10.050;2022-12-29T00:42:47;98158.41;;;10.08;86.16
5703;BME280;2876;51.738;10.050;2022-12-29T00:49:12;98170.94;;;10.14;85.93
5703;BME280;2876;51.738;10.050;2022-12-29T00:55:37;98165.34;;;10.15;86.09
5703;BME280;2876;51.738;10.050;2022-12-29T01:01:40;98163.72;;;10.14;86.02
5703;BME280;2876;51.738;10.050;2022-12-29T01:07:42;98164.25;;;10.05;86.84
5703;BME280;2876;51.738;10.050;2022-12-29T01:13:44;98157.19;;;9.92;87.26
5703;BME280;2876;51.738;10.050;2022-12-29T01:19:46;98138.50;;;10.04;87.62
5703;BME280;2876;51.738;10.050;2022-12-29T01:25:48;98123.03;;;10.06;87.41
5703;BME280;2876;51.738;10.050;2022-12-29T01:31:50;98138.81;;;9.96;88.51
5703;BME280;2876;51.738;10.050;2022-12-29T01:37:52;98130.25;;;10.05;87.73
5703;BME280;2876;51.738;10.050;2022-12-29T01:43:57;98115.16;;;9.93;88.51
5703;BME280;2876;51.738;10.050;2022-12-29T01:50:32;98135.31;;;9.95;88.92
5703;BME280;2876;51.738;10.050;2022-12-29T01:56:35;98128.19;;;10.19;88.32
5703;BME280;2876;51.738;10.050;2022-12-29T02:02:38;98126.19;;;10.33;88.13
5703;BME280;2876;51.738;10.050;2022-12-29T02:08:41;98117.03;;;10.40;87.93
5703;BME280;2876;51.738;10.050;2022-12-29T02:14:44;98111.66;;;10.40;88.02
5703;BME280;2876;51.738;10.050;2022-12-29T02:33:23;98076.25;;;10.50;87.80
5703;BME280;2876;51.738;10.050;2022-12-29T02:45:58;98067.63;;;10.72;87.20
5703;BME280;2876;51.738;10.050;2022-12-29T02:52:08;98078.38;;;10.83;87.22
5703;BME280;2876;51.738;10.050;2022-12-29T02:58:20;98088.50;;;10.70;87.31
5703;BME280;2876;51.738;10.050;2022-12-29T03:05:54;98067.66;;;10.83;87.02
5703;BME280;2876;51.738;10.050;2022-12-29T03:11:33;98071.75;;;10.98;86.75
5703;BME280;2876;51.738;10.050;2022-12-29T03:18:06;98054.03;;;11.08;86.62
5703;BME280;2876;51.738;10.050;2022-12-29T03:24:13;98043.88;;;10.87;87.83
5703;BME280;2876;51.738;10.050;2022-12-29T03:30:15;98035.66;;;11.17;86.70
5703;BME280;2876;51.738;10.050;2022-12-29T03:36:28;98029.63;;;11.10;86.96
5703;BME280;2876;51.738;10.050;2022-12-29T03:42:34;98035.22;;;11.20;86.45
5703;BME280;2876;51.738;10.050;2022-12-29T03:48:37;98021.22;;;11.18;86.31
5703;BME280;2876;51.738;10.050;2022-12-29T03:54:39;98023.94;;;10.95;87.16
5703;BME280;2876;51.738;10.050;2022-12-29T04:00:41;98029.41;;;11.00;87.02
5703;BME280;2876;51.738;10.050;2022-12-29T04:06:43;98046.19;;;11.18;86.13
5703;BME280;2876;51.738;10.050;2022-12-29T04:12:45;98039.66;;;11.14;86.61
5703;BME280;2876;51.738;10.050;2022-12-29T04:18:48;98031.34;;;11.28;85.77
5703;BME280;2876;51.738;10.050;2022-12-29T04:24:50;98033.94;;;11.23;85.58
5703;BME280;2876;51.738;10.050;2022-12-29T04:30:52;98025.41;;;11.26;85.17
5703;BME280;2876;51.738;10.050;2022-12-29T04:36:54;98022.16;;;11.12;85.13
5703;BME280;2876;51.738;10.050;2022-12-29T04:42:56;98030.06;;;11.30;85.33
5703;BME280;2876;51.738;10.050;2022-12-29T04:48:58;98024.81;;;11.24;85.53
5703;BME280;2876;51.738;10.050;2022-12-29T04:55:00;98033.19;;;11.39;85.35
5703;BME280;2876;51.738;10.050;2022-12-29T05:01:01;98019.66;;;11.46;85.02
5703;BME280;2876;51.738;10.050;2022-12-29T05:07:03;98020.72;;;11.21;86.63
5703;BME280;2876;51.738;10.050;2022-12-29T05:13:05;98017.38;;;11.14;87.06
5703;BME280;2876;51.738;10.050;2022-12-29T05:19:08;98001.06;;;11.44;86.37
5703;BME280;2876;51.738;10.050;2022-12-29T05:25:10;97996.91;;;11.36;86.90
5703;BME280;2876;51.738;10.050;2022-12-29T05:31:12;97992.56;;;11.35;87.13
5703;BME280;2876;51.738;10.050;2022-12-29T05:37:14;97995.78;;;11.61;85.92
5703;BME280;2876;51.738;10.050;2022-12-29T05:43:19;97996.16;;;11.53;86.34
5703;BME280;2876;51.738;10.050;2022-12-29T05:49:21;98001.41;;;11.59;86.54
5703;BME280;2876;51.738;10.050;2022-12-29T05:55:22;97999.78;;;11.58;86.55
5703;BME280;2876;51.738;10.050;2022-12-29T06:01:24;98012.88;;;11.43;87.46
5703;BME280;2876;51.738;10.050;2022-12-29T06:07:26;97975.06;;;11.45;87.94
5703;BME280;2876;51.738;10.050;2022-12-29T06:13:28;97962.13;;;11.30;88.12
5703;BME280;2876;51.738;10.050;2022-12-29T06:19:30;97938.59;;;11.20;88.33
5703;BME280;2876;51.738;10.050;2022-12-29T06:25:32;97922.66;;;11.13;88.97
5703;BME280;2876;51.738;10.050;2022-12-29T06:31:35;97965.44;;;11.20;88.02
5703;BME280;2876;51.738;10.050;2022-12-29T06:37:37;97975.69;;;11.23;88.38
5703;BME280;2876;51.738;10.050;2022-12-29T06:43:39;97977.78;;;11.21;88.59
5703;BME280;2876;51.738;10.050;2022-12-29T06:49:41;97983.06;;;11.16;88.93
5703;BME280;2876;51.738;10.050;2022-12-29T06:55:43;97975.88;;;11.05;89.36
5703;BME280;2876;51.738;10.050;2022-12-29T07:01:45;97979.91;;;11.07;89.09
5703;BME280;2876;51.738;10.050;2022-12-29T07:07:47;97992.16;;;11.15;88.72
5703;BME280;2876;51.738;10.050;2022-12-29T07:13:49;97974.19;;;11.15;88.30
5703;BME280;2876;51.738;10.050;2022-12-29T07:19:51;97988.53;;;11.21;88.47
5703;BME280;2876;51.738;10.050;2022-12-29T07:26:09;97999.25;;;11.21;87.50
5703;BME280;2876;51.738;10.050;2022-12-29T07:32:12;97994.69;;;11.33;87.89
5703;BME280;2876;51.738;10.050;2022-12-29T07:38:15;97987.00;;;11.25;88.33
5703;BME280;2876;51.738;10.050;2022-12-29T07:44:18;97985.00;;;11.32;88.70
5703;BME280;2876;51.738;10.050;2022-12-29T07:50:20;97996.22;;;11.29;89.30
5703;BME280;2876;51.738;10.050;2022-12-29T07:56:22;97996.81;;;11.31;90.92
5703;BME280;2876;51.738;10.050;2022-12-29T08:02:24;98019.72;;;11.22;91.07
5703;BME280;2876;51.738;10.050;2022-12-29T08:08:28;98013.75;;;11.20;91.69
5703;BME280;2876;51.738;10.050;2022-12-29T08:14:30;98020.84;;;11.26;92.64
5703;BME280;2876;51.738;10.050;2022-12-29T08:20:32;98031.47;;;11.21;92.26
5703;BME280;2876;51.738;10.050;2022-12-29T08:26:35;98042.22;;;10.98;93.00
5703;BME280;2876;51.738;10.050;2022-12-29T08:32:37;98040.34;;;11.22;92.59
5703;BME280;2876;51.738;10.050;2022-12-29T08:38:38;98045.28;;;11.13;93.12
5703;BME280;2876;51.738;10.050;2022-12-29T08:44:40;98050.03;;;11.11;93.97
5703;BME280;2876;51.738;10.050;2022-12-29T08:50:44;98060.41;;;11.07;94.60
5703;BME280;2876;51.738;10.050;2022-12-29T08:56:46;98078.50;;;10.88;95.67
5703;BME280;2876;51.738;10.050;2022-12-29T09:02:48;98069.88;;;10.63;95.69
5703;BME280;2876;51.738;10.050;2022-12-29T09:08:50;98080.06;;;10.43;95.77
5703;BME280;2876;51.738;10.050;2022-12-29T09:14:52;98077.44;;;10.54;94.14
5703;BME280;2876;51.738;10.050;2022-12-29T09:21:04;98080.44;;;10.46;95.25
5703;BME280;2876;51.738;10.050;2022-12-29T09:27:06;98064.03;;;10.54;95.64
5703;BME280;2876;51.738;10.050;2022-12-29T09:33:08;98069.88;;;10.63;94.56
5703;BME280;2876;51.738;10.050;2022-12-29T09:39:10;98084.53;;;10.60;92.43
5703;BME280;2876;51.738;10.050;2022-12-29T09:45:18;98076.63;;;10.54;90.05
5703;BME280;2876;51.738;10.050;2022-12-29T09:51:24;98074.44;;;10.86;87.12
5703;BME280;2876;51.738;10.050;2022-12-29T10:03:58;98073.25;;;10.82;86.68
5703;BME280;2876;51.738;10.050;2022-12-29T10:10:16;98069.63;;;10.76;86.25
5703;BME280;2876;51.738;10.050;2022-12-29T10:23:29;98089.44;;;10.63;85.72
5703;BME280;2876;51.738;10.050;2022-12-29T10:29:40;98087.50;;;11.06;84.56
5703;BME280;2876;51.738;10.050;2022-12-29T10:35:46;98090.88;;;11.36;85.04
5703;BME280;2876;51.738;10.050;2022-12-29T10:48:34;98092.50;;;11.89;83.67
5703;BME280;2876;51.738;10.050;2022-12-29T10:54:55;98087.56;;;12.55;84.02
5703;BME280;2876;51.738;10.050;2022-12-29T11:01:00;98083.16;;;12.66;83.67
5703;BME280;2876;51.738;10.050;2022-12-29T11:07:03;98076.41;;;12.63;84.26
5703;BME280;2876;51.738;10.050;2022-12-29T11:13:20;98073.13;;;11.99;85.75
5703;BME280;2876;51.738;10.050;2022-12-29T11:19:30;98075.81;;;12.16;85.45
5703;BME280;2876;51.738;10.050;2022-12-29T11:25:39;98059.34;;;12.12;85.29
5703;BME280;2876;51.738;10.050;2022-12-29T11:31:46;98061.66;;;12.21;85.09
5703;BME280;2876;51.738;10.050;2022-12-29T11:37:57;98073.91;;;12.28;83.83
5703;BME280;2876;51.738;10.050;2022-12-29T11:44:04;98083.06;;;12.61;81.27
5703;BME280;2876;51.738;10.050;2022-12-29T11:50:07;98078.09;;;12.69;80.38
5703;BME280;2876;51.738;10.050;2022-12-29T11:56:36;98092.84;;;12.50;79.26
5703;BME280;2876;51.738;10.050;2022-12-29T12:09:40;98102.44;;;12.01;80.35
5703;BME280;2876;51.738;10.050;2022-12-29T12:16:11;98099.19;;;12.15;79.46
5703;BME280;2876;51.738;10.050;2022-12-29T12:22:47;98104.06;;;12.02;78.85
5703;BME280;2876;51.738;10.050;2022-12-29T12:56:11;98123.06;;;11.60;74.85
5703;BME280;2876;51.738;10.050;2022-12-29T13:02:03;98133.47;;;11.45;75.74
5703;BME280;2876;51.738;10.050;2022-12-29T13:15:11;98139.97;;;11.60;74.08
5703;BME280;2876;51.738;10.050;2022-12-29T13:40:23;98170.00;;;11.46;72.85
5703;BME280;2876;51.738;10.050;2022-12-29T13:46:39;98174.66;;;11.38;73.27
5703;BME280;2876;51.738;10.050;2022-12-29T13:59:14;98214.25;;;11.31;73.16
5703;BME280;2876;51.738;10.050;2022-12-29T14:11:33;98230.44;;;11.13;74.79
5703;BME280;2876;51.738;10.050;2022-12-29T14:17:40;98236.00;;;11.11;75.84
5703;BME280;2876;51.738;10.050;2022-12-29T14:23:45;98238.81;;;11.16;74.69
5703;BME280;2876;51.738;10.050;2022-12-29T14:29:51;98239.50;;;11.12;75.00
5703;BME280;2876;51.738;10.050;2022-12-29T14:35:54;98246.38;;;11.08;75.58
5703;BME280;2876;51.738;10.050;2022-12-29T14:48:41;98257.59;;;11.05;76.37
5703;BME280;2876;51.738;10.050;2022-12-29T14:54:48;98251.75;;;11.08;77.01
5703;BME280;2876;51.738;10.050;2022-12-29T15:07:24;98280.69;;;11.06;78.92
5703;BME280;2876;51.738;10.050;2022-12-29T15:13:37;98286.78;;;10.83;79.69
5703;BME280;2876;51.738;10.050;2022-12-29T15:19:40;98288.84;;;10.81;79.76
5703;BME280;2876;51.738;10.050;2022-12-29T15:26:02;98288.41;;;10.84;78.62
5703;BME280;2876;51.738;10.050;2022-12-29T15:32:23;98312.72;;;10.71;79.67
5703;BME280;2876;51.738;10.050;2022-12-29T15:38:29;98337.69;;;10.34;82.28
5703;BME280;2876;51.738;10.050;2022-12-29T15:44:48;98338.09;;;10.13;83.65
5703;BME280;2876;51.738;10.050;2022-12-29T15:51:07;98344.31;;;10.07;84.40
5703;BME280;2876;51.738;10.050;2022-12-29T15:57:36;98350.69;;;9.87;85.11
5703;BME280;2876;51.738;10.050;2022-12-29T16:03:39;98351.28;;;9.89;85.24
5703;BME280;2876;51.738;10.050;2022-12-29T16:09:47;98349.94;;;9.99;84.37
5703;BME280;2876;51.738;10.050;2022-12-29T16:15:52;98350.03;;;9.92;83.92
5703;BME280;2876;51.738;10.050;2022-12-29T16:21:58;98354.25;;;9.81;84.60
5703;BME280;2876;51.738;10.050;2022-12-29T16:28:03;98339.69;;;9.71;85.20
5703;BME280;2876;51.738;10.050;2022-12-29T16:34:33;98346.09;;;9.70;85.27
5703;BME280;2876;51.738;10.050;2022-12-29T16:41:04;98359.91;;;9.66;85.04
5703;BME280;2876;51.738;10.050;2022-12-29T16:47:19;98357.38;;;9.72;85.79
5703;BME280;2876;51.738;10.050;2022-12-29T16:59:32;98352.94;;;9.90;85.79
5703;BME280;2876;51.738;10.050;2022-12-29T17:05:35;98352.19;;;10.02;85.08
5703;BME280;2876;51.738;10.050;2022-12-29T17:11:37;98352.69;;;9.92;83.46
5703;BME280;2876;51.738;10.050;2022-12-29T17:18:09;98350.50;;;10.07;82.84
5703;BME280;2876;51.738;10.050;2022-12-29T17:24:21;98354.44;;;10.05;81.39
5703;BME280;2876;51.738;10.050;2022-12-29T17:30:25;98371.22;;;9.94;82.36
5703;BME280;2876;51.738;10.050;2022-12-29T17:36:34;98369.19;;;9.89;82.74
5703;BME280;2876;51.738;10.050;2022-12-29T17:42:43;98364.78;;;10.01;82.37
5703;BME280;2876;51.738;10.050;2022-12-29T17:48:45;98376.41;;;9.88;82.13
5703;BME280;2876;51.738;10.050;2022-12-29T17:55:13;98375.41;;;10.08;80.44
5703;BME280;2876;51.738;10.050;2022-12-29T18:01:17;98374.28;;;10.22;79.22
5703;BME280;2876;51.738;10.050;2022-12-29T18:07:26;98374.94;;;9.93;80.71
5703;BME280;2876;51.738;10.050;2022-12-29T18:13:36;98377.63;;;9.68;82.16
5703;BME280;2876;51.738;10.050;2022-12-29T18:19:47;98402.13;;;9.96;81.41
5703;BME280;2876;51.738;10.050;2022-12-29T18:26:06;98394.63;;;9.80;79.29
5703;BME280;2876;51.738;10.050;2022-12-29T18:32:14;98402.38;;;9.88;79.14
5703;BME280;2876;51.738;10.050;2022-12-29T18:38:16;98402.66;;;9.80;79.52
5703;BME280;2876;51.738;10.050;2022-12-29T18:44:18;98422.50;;;9.72;79.80
5703;BME280;2876;51.738;10.050;2022-12-29T18:50:21;98425.38;;;9.71;79.99
5703;BME280;2876;51.738;10.050;2022-12-29T18:56:23;98423.56;;;9.64;80.63
5703;BME280;2876;51.738;10.050;2022-12-29T19:02:25;98425.34;;;9.77;80.22
5703;BME280;2876;51.738;10.050;2022-12-29T19:08:29;98432.09;;;9.80;79.26
5703;BME280;2876;51.738;10.050;2022-12-29T19:14:30;98444.25;;;9.82;78.76
5703;BME280;2876;51.738;10.050;2022-12-29T19:20:47;98435.97;;;9.90;78.43
5703;BME280;2876;51.738;10.050;2022-12-29T19:26:49;98432.34;;;9.72;78.49
5703;BME280;2876;51.738;10.050;2022-12-29T19:32:53;98423.56;;;9.64;79.06
5703;BME280;2876;51.738;10.050;2022-12-29T19:38:57;98428.44;;;9.43;79.75
5703;BME280;2876;51.738;10.050;2022-12-29T19:44:59;98429.13;;;9.25;80.56
5703;BME280;2876;51.738;10.050;2022-12-29T19:51:07;98427.16;;;9.13;81.11
5703;BME280;2876;51.738;10.050;2022-12-29T19:57:09;98431.91;;;9.05;81.03
5703;BME280;2876;51.738;10.050;2022-12-29T20:03:11;98427.63;;;8.97;81.42
5703;BME280;2876;51.738;10.050;2022-12-29T20:09:13;98428.06;;;8.87;82.00
5703;BME280;2876;51.738;10.050;2022-12-29T20:15:15;98431.63;;;8.68;82.27
5703;BME280;2876;51.738;10.050;2022-12-29T20:21:21;98448.50;;;8.55;82.57
5703;BME280;2876;51.738;10.050;2022-12-29T20:27:29;98458.09;;;8.83;82.03
5703;BME280;2876;51.738;10.050;2022-12-29T20:33:33;98458.06;;;8.89;81.71
5703;BME280;2876;51.738;10.050;2022-12-29T20:39:37;98469.59;;;8.90;80.72
5703;BME280;2876;51.738;10.050;2022-12-29T20:45:40;98477.16;;;9.13;80.00
5703;BME280;2876;51.738;10.050;2022-12-29T20:51:42;98475.13;;;9.08;80.32
5703;BME280;2876;51.738;10.050;2022-12-29T20:58:08;98477.72;;;9.22;79.28
5703;BME280;2876;51.738;10.050;2022-12-29T21:04:24;98480.00;;;9.18;80.01
5703;BME280;2876;51.738;10.050;2022-12-29T21:10:26;98487.41;;;9.23;79.09
5703;BME280;2876;51.738;10.050;2022-12-29T21:16:28;98512.44;;;9.35;78.44
5703;BME280;2876;51.738;10.050;2022-12-29T21:22:30;98521.09;;;9.37;78.34
5703;BME280;2876;51.738;10.050;2022-12-29T21:28:39;98514.97;;;9.23;78.26
5703;BME280;2876;51.738;10.050;2022-12-29T21:34:42;98534.34;;;9.19;78.18
5703;BME280;2876;51.738;10.050;2022-12-29T21:40:44;98534.38;;;9.05;79.06
5703;BME280;2876;51.738;10.050;2022-12-29T21:46:51;98548.78;;;8.98;79.55
5703;BME280;2876;51.738;10.050;2022-12-29T21:52:53;98550.22;;;8.94;79.49
5703;BME280;2876;51.738;10.050;2022-12-29T21:59:01;98568.16;;;8.86;80.40
5703;BME280;2876;51.738;10.050;2022-12-29T22:05:24;98570.78;;;8.93;79.52
5703;BME280;2876;51.738;10.050;2022-12-29T22:11:50;98583.53;;;8.98;78.87
5703;BME280;2876;51.738;10.050;2022-12-29T22:18:10;98587.66;;;9.00;78.34
5703;BME280;2876;51.738;10.050;2022-12-29T22:24:12;98608.06;;;8.81;78.63
5703;BME280;2876;51.738;10.050;2022-12-29T22:30:20;98612.97;;;8.84;78.38
5703;BME280;2876;51.738;10.050;2022-12-29T22:36:24;98623.06;;;8.82;78.48
5703;BME280;2876;51.738;10.050;2022-12-29T22:42:27;98620.38;;;8.82;77.69
5703;BME280;2876;51.738;10.050;2022-12-29T22:48:31;98616.28;;;8.86;77.08
5703;BME280;2876;51.738;10.050;2022-12-29T22:54:33;98608.44;;;8.72;78.06
5703;BME280;2876;51.738;10.050;2022-12-29T23:00:35;98624.28;;;8.73;78.40
5703;BME280;2876;51.738;10.050;2022-12-29T23:06:38;98622.63;;;8.79;78.84
5703;BME280;2876;51.738;10.050;2022-12-29T23:12:40;98617.09;;;8.74;79.21
5703;BME280;2876;51.738;10.050;2022-12-29T23:18:45;98623.06;;;8.69;79.17
5703;BME280;2876;51.738;10.050;2022-12-29T23:24:50;98611.53;;;8.69;78.97
5703;BME280;2876;51.738;10.050;2022-12-29T23:30:52;98609.25;;;8.66;78.76
5703;BME280;2876;51.738;10.050;2022-12-29T23:36:54;98618.28;;;8.58;78.86
5703;BME280;2876;51.738;10.050;2022-12-29T23:42:56;98641.13;;;8.60;78.82
5703;BME280;2876;51.738;10.050;2022-12-29T23:48:58;98648.53;;;8.65;78.66
5703;BME280;2876;51.738;10.050;2022-12-29T23:55:00;98670.16;;;8.77;78.37
